Time;durP1;ratioP1;P1;durP2;ratioP2;P2;SDS_P1;SDS_P2;PMS_P1;PMS_P2;Temp;Humidity;BMP_temperature;BMP_pressure;BME280_temperature;BME280_humidity;BME280_pressure;Samples;Min_cycle;Max_cycle;Signal;HPM_P1;HPM_P2
2023/03/14 00:01:13;;;;;;;;;;;18.10;68.70;;;;;;5007600;27;90100;-48
2023/03/14 00:03:39;;;;;;;;;;;18.20;68.50;;;;;;5006790;27;91810;-47
2023/03/14 00:06:05;;;;;;;;;;;18.10;68.50;;;;;;5014207;27;90996;-48
2023/03/14 00:08:31;;;;;;;;;;;18.10;68.40;;;;;;5016908;27;90190;-49
2023/03/14 00:10:57;;;;;;;;;;;18.00;68.60;;;;;;5004500;27;91446;-49
2023/03/14 00:13:23;;;;;;;;;;;18.00;68.60;;;;;;5019079;27;90237;-48
2023/03/14 00:15:49;;;;;;;;;;;18.00;68.60;;;;;;5013983;27;89579;-49
2023/03/14 00:18:14;;;;;;;;;;;18.00;68.60;;;;;;5017635;27;89828;-48
2023/03/14 00:20:40;;;;;;;;;;;18.00;68.50;;;;;;5019409;27;91533;-48
2023/03/14 00:23:05;;;;;;;;;;;17.90;68.20;;;;;;5015798;27;89498;-48
2023/03/14 00:25:31;;;;;;;;;;;17.90;68.40;;;;;;4992311;28;92817;-46
2023/03/14 00:27:56;;;;;;;;;;;18.00;69.20;;;;;;5010336;27;90700;-49
2023/03/14 00:30:22;;;;;;;;;;;17.90;68.80;;;;;;5011530;27;91251;-47
2023/03/14 00:32:47;;;;;;;;;;;17.90;68.70;;;;;;5006893;27;96238;-50
2023/03/14 00:35:13;;;;;;;;;;;17.90;68.40;;;;;;5005104;27;90052;-49
2023/03/14 00:37:39;;;;;;;;;;;17.90;68.70;;;;;;5004874;27;96243;-47
2023/03/14 00:40:06;;;;;;;;;;;17.90;68.70;;;;;;5007920;27;91558;-47
2023/03/14 00:42:32;;;;;;;;;;;17.80;68.70;;;;;;5007126;27;90855;-48
2023/03/14 00:44:57;;;;;;;;;;;17.80;68.50;;;;;;5010712;27;92609;-49
2023/03/14 00:47:26;;;;;;;;;;;17.80;68.50;;;;;;5018918;27;88807;-52
2023/03/14 00:49:51;;;;;;;;;;;17.80;68.60;;;;;;5003299;27;89798;-47
2023/03/14 00:52:17;;;;;;;;;;;17.80;68.40;;;;;;4998847;27;91363;-47
2023/03/14 00:54:42;;;;;;;;;;;17.80;68.40;;;;;;5009758;27;91822;-49
2023/03/14 00:57:08;;;;;;;;;;;17.80;68.60;;;;;;5015348;27;90064;-47
2023/03/14 00:59:33;;;;;;;;;;;17.70;68.40;;;;;;5006369;27;91148;-47
2023/03/14 01:01:59;;;;;;;;;;;17.80;68.40;;;;;;4999424;28;90585;-48
2023/03/14 01:04:24;;;;;;;;;;;17.70;68.40;;;;;;5005537;27;89650;-47
2023/03/14 01:06:50;;;;;;;;;;;17.70;68.20;;;;;;5005045;28;93051;-50
2023/03/14 01:09:17;;;;;;;;;;;17.70;68.20;;;;;;4987962;27;91240;-51
2023/03/14 01:11:46;;;;;;;;;;;17.70;68.30;;;;;;4999773;27;89620;-48
2023/03/14 01:14:11;;;;;;;;;;;17.70;68.30;;;;;;5003893;27;89772;-47
2023/03/14 01:16:37;;;;;;;;;;;17.70;68.10;;;;;;5019895;27;89884;-47
2023/03/14 01:19:03;;;;;;;;;;;17.70;68.10;;;;;;5000582;27;95530;-49
2023/03/14 01:21:29;;;;;;;;;;;17.70;68.30;;;;;;5010977;27;91679;-46
2023/03/14 01:23:56;;;;;;;;;;;17.70;68.10;;;;;;5008512;27;89772;-47
2023/03/14 01:26:23;;;;;;;;;;;17.70;68.10;;;;;;5008933;27;90081;-47
2023/03/14 01:28:49;;;;;;;;;;;17.60;67.90;;;;;;5008023;27;90043;-49
2023/03/14 01:31:15;;;;;;;;;;;17.60;68.10;;;;;;5013760;27;90176;-47
2023/03/14 01:33:41;;;;;;;;;;;17.70;68.00;;;;;;5000462;28;89913;-49
2023/03/14 01:36:07;;;;;;;;;;;17.70;67.90;;;;;;5008636;27;90240;-50
2023/03/14 01:38:33;;;;;;;;;;;17.60;67.70;;;;;;5005538;27;92359;-47
2023/03/14 01:40:59;;;;;;;;;;;17.60;67.50;;;;;;5026721;27;91842;-50
2023/03/14 01:43:25;;;;;;;;;;;17.70;67.70;;;;;;5004438;28;91409;-47
2023/03/14 01:45:56;;;;;;;;;;;17.60;67.80;;;;;;5002462;27;96427;-50
2023/03/14 01:48:22;;;;;;;;;;;17.60;67.80;;;;;;5006817;27;92763;-51
2023/03/14 01:50:47;;;;;;;;;;;17.60;67.60;;;;;;4998992;27;93002;-49
2023/03/14 01:53:13;;;;;;;;;;;17.60;67.70;;;;;;5012806;27;90520;-50
2023/03/14 01:55:39;;;;;;;;;;;17.60;67.80;;;;;;5009607;27;89746;-47
2023/03/14 01:58:05;;;;;;;;;;;17.60;67.70;;;;;;5002829;27;90818;-48
2023/03/14 02:00:30;;;;;;;;;;;17.60;67.70;;;;;;5002694;27;89926;-48
2023/03/14 02:03:01;;;;;;;;;;;17.60;67.50;;;;;;5000087;27;91141;-50
2023/03/14 02:05:30;;;;;;;;;;;17.60;68.00;;;;;;5009530;27;91659;-48
2023/03/14 02:07:57;;;;;;;;;;;17.60;67.50;;;;;;5006984;27;91933;-47
2023/03/14 02:10:24;;;;;;;;;;;17.60;67.50;;;;;;5003200;27;91924;-49
2023/03/14 02:12:51;;;;;;;;;;;17.60;67.40;;;;;;5008599;28;93009;-48
2023/03/14 02:15:18;;;;;;;;;;;17.60;67.40;;;;;;5002421;28;89936;-48
2023/03/14 02:17:45;;;;;;;;;;;17.60;67.50;;;;;;5006743;27;94664;-51
2023/03/14 02:20:29;;;;;;;;;;;17.60;67.50;;;;;;5003283;28;90959;-50
2023/03/14 02:22:55;;;;;;;;;;;17.50;67.30;;;;;;5009139;28;89993;-49
2023/03/14 02:25:24;;;;;;;;;;;17.60;67.50;;;;;;4998991;27;90851;-46
2023/03/14 02:27:49;;;;;;;;;;;17.60;68.30;;;;;;5013777;27;90270;-48
2023/03/14 02:30:20;;;;;;;;;;;17.50;67.00;;;;;;5001462;27;93791;-49
2023/03/14 02:32:47;;;;;;;;;;;17.60;67.30;;;;;;5001230;28;92949;-49
2023/03/14 02:35:14;;;;;;;;;;;17.50;67.30;;;;;;5008166;27;91381;-49
2023/03/14 02:37:48;;;;;;;;;;;17.50;67.40;;;;;;5010648;27;90249;-47
2023/03/14 02:40:14;;;;;;;;;;;17.50;67.40;;;;;;5014922;27;91033;-51
2023/03/14 02:42:39;;;;;;;;;;;17.50;67.40;;;;;;5012525;28;93506;-49
2023/03/14 02:45:08;;;;;;;;;;;17.50;67.40;;;;;;5008948;27;89839;-49
2023/03/14 02:47:34;;;;;;;;;;;17.50;67.40;;;;;;5014665;27;91420;-48
2023/03/14 02:50:04;;;;;;;;;;;17.60;67.40;;;;;;5015015;27;89506;-49
2023/03/14 02:52:30;;;;;;;;;;;17.50;67.30;;;;;;4999428;28;90675;-53
2023/03/14 02:54:56;;;;;;;;;;;17.50;67.20;;;;;;5010658;27;90606;-49
2023/03/14 02:57:21;;;;;;;;;;;17.50;67.30;;;;;;5013305;27;91199;-48
2023/03/14 02:59:47;;;;;;;;;;;17.50;67.20;;;;;;4999906;27;95763;-50
2023/03/14 03:02:12;;;;;;;;;;;17.50;67.50;;;;;;5003220;28;92067;-46
2023/03/14 03:04:38;;;;;;;;;;;17.50;67.30;;;;;;5013226;27;90084;-47
2023/03/14 03:07:03;;;;;;;;;;;17.40;67.20;;;;;;5002425;27;90290;-48
2023/03/14 03:09:29;;;;;;;;;;;17.50;67.20;;;;;;5004342;27;90937;-52
2023/03/14 03:11:54;;;;;;;;;;;17.50;67.40;;;;;;5006089;28;90251;-48
2023/03/14 03:14:20;;;;;;;;;;;17.40;67.10;;;;;;5010060;28;90585;-51
2023/03/14 03:16:45;;;;;;;;;;;17.50;67.20;;;;;;5009599;27;90516;-46
2023/03/14 03:19:13;;;;;;;;;;;17.40;67.20;;;;;;5003543;27;90455;-47
2023/03/14 03:21:39;;;;;;;;;;;17.40;67.10;;;;;;5009209;28;90600;-47
2023/03/14 03:24:04;;;;;;;;;;;17.40;67.10;;;;;;5000130;27;92127;-47
2023/03/14 03:26:30;;;;;;;;;;;17.40;67.20;;;;;;4992466;28;91756;-49
2023/03/14 03:28:56;;;;;;;;;;;17.40;67.10;;;;;;4964879;28;91569;-47
2023/03/14 03:31:21;;;;;;;;;;;17.50;67.20;;;;;;4983166;28;90179;-49
2023/03/14 03:33:47;;;;;;;;;;;17.40;66.80;;;;;;4983751;28;92816;-47
2023/03/14 03:36:13;;;;;;;;;;;17.40;67.10;;;;;;4987510;28;90744;-49
2023/03/14 03:38:38;;;;;;;;;;;17.40;67.30;;;;;;4982542;28;93348;-48
2023/03/14 03:41:04;;;;;;;;;;;17.40;67.10;;;;;;4984205;28;91313;-49
2023/03/14 03:43:30;;;;;;;;;;;17.40;67.00;;;;;;4978279;28;91106;-49
2023/03/14 03:45:56;;;;;;;;;;;17.40;66.90;;;;;;4984349;28;96294;-47
2023/03/14 03:48:21;;;;;;;;;;;17.40;66.90;;;;;;4974913;28;93564;-50
2023/03/14 03:50:47;;;;;;;;;;;17.40;67.10;;;;;;4967177;28;91070;-46
2023/03/14 03:53:12;;;;;;;;;;;17.40;67.20;;;;;;4976248;28;89622;-48
2023/03/14 03:55:40;;;;;;;;;;;17.40;66.90;;;;;;4982208;28;92505;-48
2023/03/14 03:58:06;;;;;;;;;;;17.40;66.90;;;;;;4989619;28;94969;-48
2023/03/14 04:00:32;;;;;;;;;;;17.40;66.90;;;;;;4986639;28;91195;-46
2023/03/14 04:02:59;;;;;;;;;;;17.40;66.60;;;;;;4989941;28;89253;-48
2023/03/14 04:05:24;;;;;;;;;;;17.40;66.90;;;;;;4989593;28;91178;-49
2023/03/14 04:07:50;;;;;;;;;;;17.40;66.80;;;;;;4979545;28;92930;-48
2023/03/14 04:10:15;;;;;;;;;;;17.40;67.00;;;;;;4972643;28;92680;-46
2023/03/14 04:12:41;;;;;;;;;;;17.30;66.80;;;;;;4986082;28;90413;-49
2023/03/14 04:15:07;;;;;;;;;;;17.40;66.80;;;;;;4988893;28;90478;-48
2023/03/14 04:17:32;;;;;;;;;;;17.40;66.60;;;;;;4980926;28;92464;-47
2023/03/14 04:19:58;;;;;;;;;;;17.30;66.80;;;;;;4992394;28;90467;-51
2023/03/14 04:22:23;;;;;;;;;;;17.40;66.70;;;;;;4985647;28;96493;-51
2023/03/14 04:24:49;;;;;;;;;;;17.30;66.80;;;;;;4986997;28;90096;-47
2023/03/14 04:27:15;;;;;;;;;;;17.30;66.70;;;;;;4988471;28;91048;-48
2023/03/14 04:29:41;;;;;;;;;;;17.30;66.70;;;;;;4974817;28;92566;-48
2023/03/14 04:32:07;;;;;;;;;;;17.30;66.50;;;;;;4983406;28;90216;-51
2023/03/14 04:34:32;;;;;;;;;;;17.30;66.50;;;;;;4983767;28;93275;-48
2023/03/14 04:36:58;;;;;;;;;;;17.30;66.50;;;;;;4990212;28;91546;-49
2023/03/14 04:39:23;;;;;;;;;;;17.30;66.80;;;;;;4979370;28;90499;-47
2023/03/14 04:41:49;;;;;;;;;;;17.30;66.80;;;;;;4991710;28;90708;-47
2023/03/14 04:44:14;;;;;;;;;;;17.20;66.80;;;;;;4987409;28;91584;-47
2023/03/14 04:46:40;;;;;;;;;;;17.30;66.70;;;;;;4973987;28;91628;-50
2023/03/14 04:49:05;;;;;;;;;;;17.30;66.60;;;;;;4977252;28;90622;-48
2023/03/14 04:51:31;;;;;;;;;;;17.20;66.60;;;;;;4980399;28;89562;-48
2023/03/14 04:53:56;;;;;;;;;;;17.20;66.70;;;;;;4990568;28;91702;-49
2023/03/14 04:56:22;;;;;;;;;;;17.20;66.70;;;;;;4990509;28;90673;-50
2023/03/14 04:58:47;;;;;;;;;;;17.20;66.70;;;;;;4992049;28;91314;-47
2023/03/14 05:01:13;;;;;;;;;;;17.20;66.60;;;;;;4982954;28;90081;-49
2023/03/14 05:03:39;;;;;;;;;;;17.20;66.60;;;;;;4963225;28;93455;-52
2023/03/14 05:06:05;;;;;;;;;;;17.20;66.60;;;;;;4976829;28;90210;-49
2023/03/14 05:08:30;;;;;;;;;;;17.30;66.40;;;;;;4984704;28;91975;-47
2023/03/14 05:10:57;;;;;;;;;;;17.30;66.40;;;;;;4980315;28;90123;-49
2023/03/14 05:13:23;;;;;;;;;;;17.30;66.50;;;;;;4997050;28;89941;-47
2023/03/14 05:15:50;;;;;;;;;;;17.20;66.60;;;;;;4984503;28;90494;-47
2023/03/14 05:18:16;;;;;;;;;;;17.20;66.60;;;;;;4983897;28;90059;-47
2023/03/14 05:20:43;;;;;;;;;;;17.30;66.60;;;;;;4983755;28;90402;-47
2023/03/14 05:23:08;;;;;;;;;;;17.30;66.50;;;;;;4981838;28;92338;-47
2023/03/14 05:25:34;;;;;;;;;;;17.20;66.70;;;;;;4975037;28;90668;-47
2023/03/14 05:27:59;;;;;;;;;;;17.20;66.60;;;;;;4994745;28;91146;-48
2023/03/14 05:30:25;;;;;;;;;;;17.20;66.60;;;;;;4981870;28;93442;-46
2023/03/14 05:32:51;;;;;;;;;;;17.20;66.60;;;;;;4978600;28;91751;-48
2023/03/14 05:35:16;;;;;;;;;;;17.20;66.60;;;;;;4975879;28;92783;-49
2023/03/14 05:37:42;;;;;;;;;;;17.20;66.70;;;;;;4964493;28;89656;-47
2023/03/14 05:40:08;;;;;;;;;;;17.20;66.60;;;;;;4982083;28;90587;-48
2023/03/14 05:42:34;;;;;;;;;;;17.20;66.60;;;;;;4981396;28;91401;-46
2023/03/14 05:44:59;;;;;;;;;;;17.20;66.70;;;;;;4985751;28;89568;-47
2023/03/14 05:47:25;;;;;;;;;;;17.20;66.20;;;;;;4995018;28;91234;-48
2023/03/14 05:49:50;;;;;;;;;;;17.10;66.90;;;;;;4973436;28;91541;-47
2023/03/14 05:52:16;;;;;;;;;;;17.00;66.80;;;;;;4978367;28;95649;-48
2023/03/14 05:54:42;;;;;;;;;;;17.00;67.10;;;;;;4988485;28;90892;-48
2023/03/14 05:57:07;;;;;;;;;;;17.00;67.00;;;;;;4979901;28;90029;-47
2023/03/14 05:59:33;;;;;;;;;;;16.90;67.10;;;;;;4976923;28;90520;-47
2023/03/14 06:01:58;;;;;;;;;;;17.00;67.00;;;;;;4974258;28;94055;-50
2023/03/14 06:04:24;;;;;;;;;;;17.00;67.00;;;;;;4979156;28;90412;-46
2023/03/14 06:06:50;;;;;;;;;;;16.90;67.20;;;;;;4989849;28;97289;-47
2023/03/14 06:09:15;;;;;;;;;;;16.90;67.00;;;;;;4961933;28;90816;-49
2023/03/14 06:11:41;;;;;;;;;;;16.80;67.30;;;;;;4984724;28;91975;-48
2023/03/14 06:14:06;;;;;;;;;;;16.80;67.50;;;;;;4984917;28;91900;-47
2023/03/14 06:16:32;;;;;;;;;;;16.80;67.80;;;;;;4985926;28;92647;-49
2023/03/14 06:18:57;;;;;;;;;;;16.70;67.70;;;;;;4985307;28;91969;-47
2023/03/14 06:21:23;;;;;;;;;;;16.80;67.90;;;;;;4975582;28;90924;-46
2023/03/14 06:23:48;;;;;;;;;;;16.70;67.70;;;;;;4977339;28;90743;-47
2023/03/14 06:26:14;;;;;;;;;;;16.70;67.80;;;;;;4979292;28;95484;-49
2023/03/14 06:28:40;;;;;;;;;;;16.70;67.90;;;;;;4966855;28;90788;-49
2023/03/14 06:31:05;;;;;;;;;;;16.70;67.50;;;;;;4984564;28;91320;-48
2023/03/14 06:33:31;;;;;;;;;;;16.70;68.20;;;;;;4980745;28;91411;-51
2023/03/14 06:35:57;;;;;;;;;;;16.60;68.30;;;;;;4985008;28;92657;-48
2023/03/14 06:38:22;;;;;;;;;;;16.60;68.30;;;;;;4988102;28;89965;-49
2023/03/14 06:40:48;;;;;;;;;;;16.60;68.60;;;;;;4981206;28;93387;-51
2023/03/14 06:43:13;;;;;;;;;;;16.60;68.40;;;;;;4987040;28;90375;-47
2023/03/14 06:45:39;;;;;;;;;;;16.50;68.30;;;;;;4989959;28;91485;-47
2023/03/14 06:48:04;;;;;;;;;;;16.50;68.20;;;;;;4975253;28;94013;-48
2023/03/14 06:50:30;;;;;;;;;;;16.50;68.50;;;;;;4982887;28;91663;-48
2023/03/14 06:52:56;;;;;;;;;;;16.50;69.10;;;;;;4993119;28;93339;-51
2023/03/14 06:55:21;;;;;;;;;;;16.50;69.30;;;;;;4984917;28;89920;-46
2023/03/14 06:57:47;;;;;;;;;;;16.40;68.70;;;;;;4984060;28;94707;-47
2023/03/14 07:00:12;;;;;;;;;;;16.30;68.80;;;;;;4977720;28;93107;-48
2023/03/14 07:02:38;;;;;;;;;;;16.30;68.90;;;;;;4982726;28;91404;-48
2023/03/14 07:05:04;;;;;;;;;;;16.20;68.30;;;;;;4981006;28;90942;-48
2023/03/14 07:07:29;;;;;;;;;;;16.20;68.20;;;;;;4990311;28;90257;-50
2023/03/14 07:09:55;;;;;;;;;;;16.10;69.50;;;;;;4974343;28;91484;-47
2023/03/14 07:12:20;;;;;;;;;;;16.20;69.50;;;;;;4985013;28;90819;-46
2023/03/14 07:14:46;;;;;;;;;;;16.30;68.90;;;;;;4978165;28;93413;-47
2023/03/14 07:17:11;;;;;;;;;;;16.50;67.90;;;;;;4975828;28;92841;-49
2023/03/14 07:19:37;;;;;;;;;;;16.50;67.00;;;;;;4988525;28;91380;-46
2023/03/14 07:22:04;;;;;;;;;;;16.50;66.40;;;;;;4992696;28;90044;-47
2023/03/14 07:24:29;;;;;;;;;;;16.60;66.70;;;;;;4980634;28;94145;-48
2023/03/14 07:26:55;;;;;;;;;;;16.70;66.60;;;;;;4983173;28;90475;-47
2023/03/14 07:29:20;;;;;;;;;;;16.70;65.80;;;;;;4987935;28;90864;-45
2023/03/14 07:31:46;;;;;;;;;;;16.70;66.10;;;;;;4982287;28;91880;-47
2023/03/14 07:34:11;;;;;;;;;;;16.70;65.40;;;;;;4982952;28;89596;-46
2023/03/14 07:36:37;;;;;;;;;;;16.70;66.20;;;;;;4991261;28;92445;-48
2023/03/14 07:39:04;;;;;;;;;;;16.70;65.50;;;;;;4976689;28;91361;-46
2023/03/14 07:41:29;;;;;;;;;;;16.70;65.30;;;;;;4975386;28;89553;-46
2023/03/14 07:43:55;;;;;;;;;;;16.70;65.00;;;;;;4985914;28;91690;-48
2023/03/14 07:46:20;;;;;;;;;;;16.70;64.90;;;;;;4984056;28;89860;-51
2023/03/14 07:48:46;;;;;;;;;;;16.70;65.10;;;;;;4979297;28;94350;-45
2023/03/14 07:51:11;;;;;;;;;;;16.70;65.40;;;;;;4976908;28;92545;-45
2023/03/14 07:53:38;;;;;;;;;;;16.70;64.70;;;;;;4973228;28;91609;-46
2023/03/14 07:56:03;;;;;;;;;;;16.70;64.40;;;;;;4982414;28;95978;-44
2023/03/14 07:58:29;;;;;;;;;;;16.80;65.20;;;;;;4980034;28;95305;-46
2023/03/14 08:00:54;;;;;;;;;;;16.80;64.70;;;;;;4977341;28;90784;-46
2023/03/14 08:03:20;;;;;;;;;;;16.70;64.30;;;;;;4984729;28;91918;-48
2023/03/14 08:05:49;;;;;;;;;;;16.80;64.50;;;;;;4988177;28;89595;-46
2023/03/14 08:08:14;;;;;;;;;;;16.80;63.70;;;;;;4970531;28;95599;-43
2023/03/14 08:10:40;;;;;;;;;;;16.80;63.90;;;;;;4976539;28;92039;-45
2023/03/14 08:13:05;;;;;;;;;;;16.80;63.90;;;;;;4989871;28;91115;-45
2023/03/14 08:15:31;;;;;;;;;;;16.90;63.70;;;;;;4984995;28;91093;-46
2023/03/14 08:17:57;;;;;;;;;;;16.80;63.60;;;;;;4989080;28;91318;-46
2023/03/14 08:20:24;;;;;;;;;;;16.80;63.40;;;;;;4981940;28;93948;-45
2023/03/14 08:22:50;;;;;;;;;;;16.80;63.00;;;;;;4986986;28;91033;-45
2023/03/14 08:25:15;;;;;;;;;;;16.70;62.90;;;;;;4984602;28;92427;-46
2023/03/14 08:27:41;;;;;;;;;;;16.70;63.30;;;;;;4978317;28;91691;-48
2023/03/14 08:30:09;;;;;;;;;;;16.80;63.40;;;;;;4993996;28;89431;-46
2023/03/14 08:32:35;;;;;;;;;;;16.90;63.70;;;;;;4977324;28;94142;-45
2023/03/14 08:35:00;;;;;;;;;;;17.10;62.00;;;;;;4985188;28;90352;-46
2023/03/14 08:37:27;;;;;;;;;;;17.30;61.70;;;;;;4979939;28;92298;-45
2023/03/14 08:39:52;;;;;;;;;;;17.40;61.50;;;;;;4984119;28;92573;-45
2023/03/14 08:42:18;;;;;;;;;;;17.50;60.50;;;;;;4983419;28;91028;-45
2023/03/14 08:44:43;;;;;;;;;;;17.70;60.40;;;;;;4974910;28;90667;-47
2023/03/14 08:47:09;;;;;;;;;;;17.90;59.80;;;;;;4980928;28;90519;-48
2023/03/14 08:49:34;;;;;;;;;;;18.00;59.10;;;;;;4976000;28;90850;-46
2023/03/14 08:52:04;;;;;;;;;;;18.10;59.50;;;;;;4980364;28;96265;-45
2023/03/14 08:54:30;;;;;;;;;;;18.00;59.40;;;;;;4987599;28;90104;-46
2023/03/14 08:56:55;;;;;;;;;;;18.00;58.80;;;;;;4984348;28;93455;-46
2023/03/14 08:59:21;;;;;;;;;;;18.10;59.20;;;;;;4980144;28;90540;-45
2023/03/14 09:01:46;;;;;;;;;;;18.20;58.60;;;;;;4989818;28;93387;-47
2023/03/14 09:04:13;;;;;;;;;;;18.30;58.10;;;;;;4976747;28;90477;-47
2023/03/14 09:06:39;;;;;;;;;;;18.30;58.30;;;;;;4989555;28;91237;-46
2023/03/14 09:09:05;;;;;;;;;;;18.20;58.50;;;;;;4969774;28;94933;-47
2023/03/14 09:11:30;;;;;;;;;;;18.40;57.70;;;;;;4979204;28;90277;-50
2023/03/14 09:13:56;;;;;;;;;;;18.40;58.00;;;;;;4990320;28;89863;-46
2023/03/14 09:16:21;;;;;;;;;;;18.30;57.50;;;;;;4991886;28;92136;-46
2023/03/14 09:18:47;;;;;;;;;;;18.30;58.00;;;;;;4981531;28;90525;-47
2023/03/14 09:21:12;;;;;;;;;;;18.40;58.20;;;;;;4973393;28;91150;-45
2023/03/14 09:23:38;;;;;;;;;;;18.40;57.70;;;;;;4991328;28;93311;-46
2023/03/14 09:26:04;;;;;;;;;;;18.30;57.80;;;;;;4973502;28;91736;-47
2023/03/14 09:28:30;;;;;;;;;;;18.30;58.50;;;;;;4974730;28;95295;-49
2023/03/14 09:30:55;;;;;;;;;;;18.40;57.40;;;;;;4982327;28;89698;-48
2023/03/14 09:33:21;;;;;;;;;;;18.60;57.50;;;;;;4987524;28;90992;-47
2023/03/14 09:35:46;;;;;;;;;;;18.60;57.40;;;;;;4987432;28;91582;-49
2023/03/14 09:38:12;;;;;;;;;;;18.60;57.40;;;;;;4976171;28;90651;-47
2023/03/14 09:40:38;;;;;;;;;;;18.70;57.50;;;;;;4986824;28;89902;-46
2023/03/14 09:43:04;;;;;;;;;;;18.80;57.20;;;;;;4981223;28;93716;-46
2023/03/14 09:45:34;;;;;;;;;;;18.70;56.80;;;;;;4978665;28;94716;-50
2023/03/14 09:48:01;;;;;;;;;;;18.70;56.80;;;;;;4978109;28;93307;-47
2023/03/14 09:50:30;;;;;;;;;;;18.50;57.40;;;;;;4986561;28;94048;-46
2023/03/14 09:52:59;;;;;;;;;;;18.60;57.30;;;;;;4982913;28;89768;-46
2023/03/14 09:55:24;;;;;;;;;;;18.70;56.90;;;;;;4977122;28;90130;-46
2023/03/14 09:57:53;;;;;;;;;;;18.60;57.10;;;;;;4986005;28;90623;-48
2023/03/14 10:00:21;;;;;;;;;;;18.70;57.00;;;;;;4983779;28;90296;-49
2023/03/14 10:02:50;;;;;;;;;;;18.60;56.90;;;;;;4981427;28;92392;-47
2023/03/14 10:05:18;;;;;;;;;;;18.40;56.60;;;;;;4973671;28;92691;-48
2023/03/14 10:07:43;;;;;;;;;;;18.50;56.80;;;;;;4991617;28;90444;-45
2023/03/14 10:10:14;;;;;;;;;;;18.60;57.00;;;;;;4976114;28;94190;-45
2023/03/14 10:12:41;;;;;;;;;;;18.60;56.40;;;;;;4982115;28;89598;-47
2023/03/14 10:15:09;;;;;;;;;;;18.60;56.70;;;;;;4981425;28;97358;-49
2023/03/14 10:17:39;;;;;;;;;;;18.50;56.00;;;;;;4988632;28;91553;-47
2023/03/14 10:20:05;;;;;;;;;;;18.40;56.60;;;;;;4982518;28;89777;-47
2023/03/14 10:22:31;;;;;;;;;;;18.40;56.50;;;;;;4979605;28;90147;-49
2023/03/14 10:25:00;;;;;;;;;;;18.40;56.50;;;;;;4977644;28;94065;-47
2023/03/14 10:27:35;;;;;;;;;;;18.50;56.60;;;;;;4990982;28;90450;-48
2023/03/14 10:30:02;;;;;;;;;;;18.60;56.40;;;;;;4987136;28;90909;-47
2023/03/14 10:32:33;;;;;;;;;;;18.60;55.90;;;;;;4981135;28;91220;-47
2023/03/14 10:35:04;;;;;;;;;;;18.50;55.80;;;;;;4982008;28;89987;-47
2023/03/14 10:37:30;;;;;;;;;;;18.60;55.60;;;;;;4989916;28;94667;-46
2023/03/14 10:39:58;;;;;;;;;;;18.50;55.90;;;;;;4978112;28;91082;-47
2023/03/14 10:42:24;;;;;;;;;;;18.50;55.80;;;;;;4985576;28;92032;-47
2023/03/14 10:44:55;;;;;;;;;;;18.30;56.00;;;;;;4980665;28;91181;-48
2023/03/14 10:47:23;;;;;;;;;;;18.40;56.60;;;;;;4985926;28;90725;-48
2023/03/14 10:49:48;;;;;;;;;;;18.30;56.20;;;;;;4991036;28;89691;-46
2023/03/14 10:52:22;;;;;;;;;;;18.10;56.10;;;;;;4987905;28;91947;-48
2023/03/14 10:54:49;;;;;;;;;;;18.00;56.60;;;;;;4990396;28;91593;-46
2023/03/14 10:57:14;;;;;;;;;;;18.10;57.40;;;;;;4980666;28;91429;-47
2023/03/14 10:59:42;;;;;;;;;;;18.10;57.00;;;;;;4987813;28;89739;-47
2023/03/14 11:02:10;;;;;;;;;;;17.90;56.40;;;;;;4981950;28;93551;-46
2023/03/14 11:04:35;;;;;;;;;;;17.80;56.60;;;;;;4985416;28;95499;-47
2023/03/14 11:07:07;;;;;;;;;;;17.80;57.10;;;;;;4992651;28;92140;-46
2023/03/14 11:09:41;;;;;;;;;;;17.80;57.60;;;;;;4981240;28;90860;-47
2023/03/14 11:12:20;;;;;;;;;;;17.90;56.90;;;;;;4978669;28;90411;-47
2023/03/14 11:14:48;;;;;;;;;;;17.90;57.00;;;;;;4979290;28;93674;-47
2023/03/14 11:17:19;;;;;;;;;;;17.90;56.80;;;;;;4978540;28;91734;-47
2023/03/14 11:20:11;;;;;;;;;;;18.00;57.40;;;;;;4985017;28;90537;-50
2023/03/14 11:22:43;;;;;;;;;;;18.00;56.90;;;;;;4952677;28;91902;-50
2023/03/14 11:25:14;;;;;;;;;;;17.90;57.10;;;;;;5000842;28;92790;-46
2023/03/14 11:27:44;;;;;;;;;;;18.00;56.90;;;;;;4997478;27;92069;-47
2023/03/14 11:30:18;;;;;;;;;;;17.90;57.10;;;;;;4999286;27;93627;-47
2023/03/14 11:32:56;;;;;;;;;;;17.80;57.30;;;;;;4999568;28;89691;-49
2023/03/14 11:35:30;;;;;;;;;;;17.90;57.40;;;;;;5006499;28;91138;-47
2023/03/14 11:38:04;;;;;;;;;;;17.90;57.40;;;;;;5003080;27;91313;-49
2023/03/14 11:40:31;;;;;;;;;;;17.90;57.20;;;;;;4994888;28;92880;-47
2023/03/14 11:43:19;;;;;;;;;;;17.80;57.10;;;;;;5004237;27;91365;-47
2023/03/14 11:45:46;;;;;;;;;;;17.80;57.40;;;;;;5001771;28;93413;-47
2023/03/14 11:48:11;;;;;;;;;;;17.90;56.80;;;;;;5007885;27;90461;-47
2023/03/14 11:50:38;;;;;;;;;;;18.00;56.60;;;;;;5016116;28;92552;-48
2023/03/14 11:53:24;;;;;;;;;;;18.30;56.30;;;;;;5005796;27;91165;-46
2023/03/14 11:55:51;;;;;;;;;;;18.40;55.70;;;;;;4971077;28;96239;-48
2023/03/14 11:58:19;;;;;;;;;;;18.40;55.40;;;;;;5001656;27;90759;-49
2023/03/14 12:00:45;;;;;;;;;;;18.60;55.80;;;;;;5015180;28;90107;-46
2023/03/14 12:03:17;;;;;;;;;;;18.70;55.50;;;;;;5001041;27;90125;-47
2023/03/14 12:05:54;;;;;;;;;;;18.70;55.50;;;;;;4999755;27;92364;-46
2023/03/14 12:08:32;;;;;;;;;;;18.80;55.40;;;;;;4998315;28;92741;-46
2023/03/14 12:11:04;;;;;;;;;;;18.80;55.40;;;;;;4998129;27;89964;-47
2023/03/14 12:13:33;;;;;;;;;;;18.90;55.40;;;;;;5004696;28;88849;-47
2023/03/14 12:16:00;;;;;;;;;;;18.90;55.20;;;;;;5005546;28;91926;-47
2023/03/14 12:18:30;;;;;;;;;;;18.90;55.30;;;;;;4995163;27;91743;-49
2023/03/14 12:21:22;;;;;;;;;;;18.90;55.30;;;;;;4991196;27;92021;-48
2023/03/14 12:23:52;;;;;;;;;;;18.80;55.40;;;;;;4982552;27;94834;-46
2023/03/14 12:26:42;;;;;;;;;;;18.90;55.50;;;;;;4982273;28;94919;-47
2023/03/14 12:29:17;;;;;;;;;;;18.90;55.50;;;;;;4978816;28;90098;-48
2023/03/14 12:31:43;;;;;;;;;;;18.90;55.60;;;;;;4984625;28;91596;-46
2023/03/14 12:34:09;;;;;;;;;;;18.90;55.40;;;;;;4984031;28;90903;-45
2023/03/14 12:36:44;;;;;;;;;;;18.90;55.40;;;;;;4979822;28;91495;-45
2023/03/14 12:39:15;;;;;;;;;;;18.90;55.50;;;;;;4983916;28;95975;-46
2023/03/14 12:41:44;;;;;;;;;;;18.80;55.50;;;;;;4989647;28;93323;-47
2023/03/14 12:44:28;;;;;;;;;;;18.80;55.60;;;;;;4989902;28;89952;-46
2023/03/14 12:46:54;;;;;;;;;;;18.80;55.80;;;;;;4991169;28;95420;-46
2023/03/14 12:49:20;;;;;;;;;;;18.80;55.90;;;;;;4982807;28;92006;-46
2023/03/14 12:51:45;;;;;;;;;;;18.70;55.90;;;;;;4985093;28;90057;-46
2023/03/14 12:54:26;;;;;;;;;;;18.60;55.80;;;;;;4985940;28;91479;-48
2023/03/14 12:56:57;;;;;;;;;;;18.50;56.00;;;;;;4985673;28;91122;-46
2023/03/14 12:59:29;;;;;;;;;;;18.40;56.20;;;;;;4988994;28;95498;-46
2023/03/14 13:01:55;;;;;;;;;;;18.40;56.40;;;;;;4980058;28;90109;-46
2023/03/14 13:04:27;;;;;;;;;;;18.30;56.50;;;;;;4987360;28;92723;-46
2023/03/14 13:06:56;;;;;;;;;;;18.30;56.70;;;;;;4983245;28;94391;-46
2023/03/14 13:09:34;;;;;;;;;;;18.20;56.50;;;;;;4975327;28;91599;-46
2023/03/14 13:12:09;;;;;;;;;;;18.10;57.10;;;;;;4972887;28;91902;-47
2023/03/14 13:14:36;;;;;;;;;;;18.00;57.10;;;;;;4980760;28;90706;-46
2023/03/14 13:17:02;;;;;;;;;;;18.00;57.50;;;;;;4986747;28;91547;-47
2023/03/14 13:19:29;;;;;;;;;;;17.90;57.40;;;;;;4987516;28;91185;-48
2023/03/14 13:22:01;;;;;;;;;;;17.90;57.70;;;;;;4981905;28;94647;-48
2023/03/14 13:24:28;;;;;;;;;;;17.90;57.60;;;;;;4984737;28;89882;-48
2023/03/14 13:26:54;;;;;;;;;;;17.90;57.70;;;;;;4986222;28;91446;-45
2023/03/14 13:29:21;;;;;;;;;;;17.80;57.80;;;;;;4982456;28;90474;-46
2023/03/14 13:31:47;;;;;;;;;;;17.80;57.90;;;;;;4982335;28;89973;-46
2023/03/14 13:34:13;;;;;;;;;;;17.80;57.70;;;;;;4989083;28;89749;-47
2023/03/14 13:36:38;;;;;;;;;;;17.70;57.90;;;;;;4977277;28;92182;-46
2023/03/14 13:39:09;;;;;;;;;;;17.40;57.20;;;;;;4984424;28;96228;-46
2023/03/14 13:41:34;;;;;;;;;;;17.30;58.20;;;;;;4973737;28;96273;-47
2023/03/14 13:44:16;;;;;;;;;;;17.30;58.30;;;;;;4986130;28;90842;-47
2023/03/14 13:46:42;;;;;;;;;;;17.30;58.30;;;;;;4981502;28;91455;-48
2023/03/14 13:49:12;;;;;;;;;;;17.30;58.30;;;;;;4976872;28;91333;-46
2023/03/14 13:51:39;;;;;;;;;;;17.30;58.40;;;;;;4979044;28;91315;-46
2023/03/14 13:54:13;;;;;;;;;;;17.30;58.40;;;;;;4985504;28;89479;-47
2023/03/14 13:56:38;;;;;;;;;;;17.20;58.30;;;;;;4988033;28;90083;-48
2023/03/14 13:59:04;;;;;;;;;;;17.10;58.30;;;;;;4978619;28;94836;-46
2023/03/14 14:01:33;;;;;;;;;;;17.10;58.50;;;;;;4980322;28;90656;-46
2023/03/14 14:04:06;;;;;;;;;;;17.00;58.50;;;;;;4989767;28;91020;-47
2023/03/14 14:06:34;;;;;;;;;;;17.00;59.20;;;;;;4988684;28;91188;-47
2023/03/14 14:09:02;;;;;;;;;;;17.00;59.00;;;;;;4977247;28;92460;-48
2023/03/14 14:11:31;;;;;;;;;;;16.90;59.00;;;;;;4981497;28;89762;-48
2023/03/14 14:13:57;;;;;;;;;;;17.00;58.80;;;;;;4989890;28;91054;-47
2023/03/14 14:16:27;;;;;;;;;;;16.90;58.90;;;;;;4979862;28;93428;-46